sensor_id;sensor_type;location;lat;lon;timestamp;temperature;humidity
53776;DHT22;44276;49.534;6.378;2024-02-21T00:02:13;7.50;99.90
53776;DHT22;44276;49.534;6.378;2024-02-21T00:04:44;7.60;99.90
53776;DHT22;44276;49.534;6.378;2024-02-21T00:07:19;7.60;99.90
53776;DHT22;44276;49.534;6.378;2024-02-21T00:09:47;7.50;99.90
53776;DHT22;44276;49.534;6.378;2024-02-21T00:12:16;7.60;99.90
53776;DHT22;44276;49.534;6.378;2024-02-21T00:14:44;7.50;99.90
53776;DHT22;44276;49.534;6.378;2024-02-21T00:17:13;7.50;99.90
53776;DHT22;44276;49.534;6.378;2024-02-21T00:19:41;7.60;99.90
53776;DHT22;44276;49.534;6.378;2024-02-21T00:22:11;7.60;99.90
53776;DHT22;44276;49.534;6.378;2024-02-21T00:24:42;7.70;99.90
53776;DHT22;44276;49.534;6.378;2024-02-21T00:27:10;7.70;99.90
53776;DHT22;44276;49.534;6.378;2024-02-21T00:29:38;7.70;99.90
53776;DHT22;44276;49.534;6.378;2024-02-21T00:32:07;7.70;99.90
53776;DHT22;44276;49.534;6.378;2024-02-21T00:34:35;7.60;99.90
53776;DHT22;44276;49.534;6.378;2024-02-21T00:37:04;7.50;99.90
53776;DHT22;44276;49.534;6.378;2024-02-21T00:39:34;7.50;99.90
53776;DHT22;44276;49.534;6.378;2024-02-21T00:42:02;7.50;99.90
53776;DHT22;44276;49.534;6.378;2024-02-21T00:44:31;7.50;99.90
53776;DHT22;44276;49.534;6.378;2024-02-21T00:46:59;7.60;99.90
53776;DHT22;44276;49.534;6.378;2024-02-21T00:49:27;7.70;99.90
53776;DHT22;44276;49.534;6.378;2024-02-21T00:52:04;7.70;99.90
53776;DHT22;44276;49.534;6.378;2024-02-21T00:54:34;7.70;99.90
53776;DHT22;44276;49.534;6.378;2024-02-21T00:57:16;7.70;99.90
53776;DHT22;44276;49.534;6.378;2024-02-21T00:59:44;7.70;99.90
53776;DHT22;44276;49.534;6.378;2024-02-21T01:02:12;7.70;99.90
53776;DHT22;44276;49.534;6.378;2024-02-21T01:04:41;7.80;99.90
53776;DHT22;44276;49.534;6.378;2024-02-21T01:07:09;7.80;99.90
53776;DHT22;44276;49.534;6.378;2024-02-21T01:09:51;7.70;99.90
53776;DHT22;44276;49.534;6.378;2024-02-21T01:12:20;7.70;99.90
53776;DHT22;44276;49.534;6.378;2024-02-21T01:14:48;7.70;99.90
53776;DHT22;44276;49.534;6.378;2024-02-21T01:17:17;7.80;99.90
53776;DHT22;44276;49.534;6.378;2024-02-21T01:19:46;7.70;99.90
53776;DHT22;44276;49.534;6.378;2024-02-21T01:22:22;7.70;99.90
53776;DHT22;44276;49.534;6.378;2024-02-21T01:24:52;7.80;99.90
53776;DHT22;44276;49.534;6.378;2024-02-21T01:27:20;7.80;99.90
53776;DHT22;44276;49.534;6.378;2024-02-21T01:29:48;7.70;99.90
53776;DHT22;44276;49.534;6.378;2024-02-21T01:32:17;7.70;99.90
53776;DHT22;44276;49.534;6.378;2024-02-21T01:34:45;7.70;99.90
53776;DHT22;44276;49.534;6.378;2024-02-21T01:37:19;7.80;99.90
53776;DHT22;44276;49.534;6.378;2024-02-21T01:39:48;7.80;99.90
53776;DHT22;44276;49.534;6.378;2024-02-21T01:42:18;7.80;99.90
53776;DHT22;44276;49.534;6.378;2024-02-21T01:44:47;7.70;99.90
53776;DHT22;44276;49.534;6.378;2024-02-21T01:47:15;7.80;99.90
53776;DHT22;44276;49.534;6.378;2024-02-21T01:49:44;7.80;99.90
53776;DHT22;44276;49.534;6.378;2024-02-21T01:52:19;7.90;99.90
53776;DHT22;44276;49.534;6.378;2024-02-21T01:54:47;7.80;99.90
53776;DHT22;44276;49.534;6.378;2024-02-21T01:57:17;7.80;99.90
53776;DHT22;44276;49.534;6.378;2024-02-21T01:59:46;7.80;99.90
53776;DHT22;44276;49.534;6.378;2024-02-21T02:02:15;7.80;99.90
53776;DHT22;44276;49.534;6.378;2024-02-21T02:04:45;7.80;99.90
53776;DHT22;44276;49.534;6.378;2024-02-21T02:07:19;7.70;99.90
53776;DHT22;44276;49.534;6.378;2024-02-21T02:09:48;7.70;99.90
53776;DHT22;44276;49.534;6.378;2024-02-21T02:12:17;7.80;99.90
53776;DHT22;44276;49.534;6.378;2024-02-21T02:14:46;7.70;99.90
53776;DHT22;44276;49.534;6.378;2024-02-21T02:17:14;7.70;99.90
53776;DHT22;44276;49.534;6.378;2024-02-21T02:19:43;7.80;99.90
53776;DHT22;44276;49.534;6.378;2024-02-21T02:22:16;7.80;99.90
53776;DHT22;44276;49.534;6.378;2024-02-21T02:24:57;7.70;99.90
53776;DHT22;44276;49.534;6.378;2024-02-21T02:27:26;7.70;99.90
53776;DHT22;44276;49.534;6.378;2024-02-21T02:29:54;7.80;99.90
53776;DHT22;44276;49.534;6.378;2024-02-21T02:32:22;7.80;99.90
53776;DHT22;44276;49.534;6.378;2024-02-21T02:34:50;7.70;99.90
53776;DHT22;44276;49.534;6.378;2024-02-21T02:37:19;7.80;99.90
53776;DHT22;44276;49.534;6.378;2024-02-21T02:39:47;7.80;99.90
53776;DHT22;44276;49.534;6.378;2024-02-21T02:42:17;7.70;99.90
53776;DHT22;44276;49.534;6.378;2024-02-21T02:44:45;7.70;99.90
53776;DHT22;44276;49.534;6.378;2024-02-21T02:47:13;7.80;99.90
53776;DHT22;44276;49.534;6.378;2024-02-21T02:49:42;7.80;99.90
53776;DHT22;44276;49.534;6.378;2024-02-21T02:52:23;7.70;99.90
53776;DHT22;44276;49.534;6.378;2024-02-21T02:54:51;7.70;99.90
53776;DHT22;44276;49.534;6.378;2024-02-21T02:57:23;7.70;99.90
53776;DHT22;44276;49.534;6.378;2024-02-21T02:59:51;7.70;99.90
53776;DHT22;44276;49.534;6.378;2024-02-21T03:02:20;7.70;99.90
53776;DHT22;44276;49.534;6.378;2024-02-21T03:04:48;7.70;99.90
53776;DHT22;44276;49.534;6.378;2024-02-21T03:07:20;7.60;99.90
53776;DHT22;44276;49.534;6.378;2024-02-21T03:09:48;7.60;99.90
53776;DHT22;44276;49.534;6.378;2024-02-21T03:12:17;7.60;99.90
53776;DHT22;44276;49.534;6.378;2024-02-21T03:14:52;7.60;99.90
53776;DHT22;44276;49.534;6.378;2024-02-21T03:17:20;7.50;99.90
53776;DHT22;44276;49.534;6.378;2024-02-21T03:19:49;7.50;99.90
53776;DHT22;44276;49.534;6.378;2024-02-21T03:22:23;7.50;99.90
53776;DHT22;44276;49.534;6.378;2024-02-21T03:24:51;7.50;99.90
53776;DHT22;44276;49.534;6.378;2024-02-21T03:27:20;7.50;99.90
53776;DHT22;44276;49.534;6.378;2024-02-21T03:29:48;7.40;99.90
53776;DHT22;44276;49.534;6.378;2024-02-21T03:32:18;7.40;99.90
53776;DHT22;44276;49.534;6.378;2024-02-21T03:34:46;7.40;99.90
53776;DHT22;44276;49.534;6.378;2024-02-21T03:37:21;7.40;99.90
53776;DHT22;44276;49.534;6.378;2024-02-21T03:39:49;7.30;99.90
53776;DHT22;44276;49.534;6.378;2024-02-21T03:42:18;7.40;99.90
53776;DHT22;44276;49.534;6.378;2024-02-21T03:44:46;7.30;99.90
53776;DHT22;44276;49.534;6.378;2024-02-21T03:47:14;7.30;99.90
53776;DHT22;44276;49.534;6.378;2024-02-21T03:49:44;7.20;99.90
53776;DHT22;44276;49.534;6.378;2024-02-21T03:52:13;7.30;99.90
53776;DHT22;44276;49.534;6.378;2024-02-21T03:54:52;7.20;99.90
53776;DHT22;44276;49.534;6.378;2024-02-21T03:57:21;7.20;99.90
53776;DHT22;44276;49.534;6.378;2024-02-21T03:59:50;7.20;99.90
53776;DHT22;44276;49.534;6.378;2024-02-21T04:02:19;7.00;99.90
53776;DHT22;44276;49.534;6.378;2024-02-21T04:04:48;7.00;99.90
53776;DHT22;44276;49.534;6.378;2024-02-21T04:07:20;6.90;99.90
53776;DHT22;44276;49.534;6.378;2024-02-21T04:09:48;6.90;99.90
53776;DHT22;44276;49.534;6.378;2024-02-21T04:12:16;6.90;99.90
53776;DHT22;44276;49.534;6.378;2024-02-21T04:14:44;6.90;99.90
53776;DHT22;44276;49.534;6.378;2024-02-21T04:17:13;7.00;99.90
53776;DHT22;44276;49.534;6.378;2024-02-21T04:19:41;6.90;99.90
53776;DHT22;44276;49.534;6.378;2024-02-21T04:22:26;6.90;99.90
53776;DHT22;44276;49.534;6.378;2024-02-21T04:24:54;7.00;99.90
53776;DHT22;44276;49.534;6.378;2024-02-21T04:27:23;7.00;99.90
53776;DHT22;44276;49.534;6.378;2024-02-21T04:29:52;7.00;99.90
53776;DHT22;44276;49.534;6.378;2024-02-21T04:32:21;7.10;99.90
53776;DHT22;44276;49.534;6.378;2024-02-21T04:34:49;7.00;99.90
53776;DHT22;44276;49.534;6.378;2024-02-21T04:37:21;7.20;99.90
53776;DHT22;44276;49.534;6.378;2024-02-21T04:39:50;7.10;99.90
53776;DHT22;44276;49.534;6.378;2024-02-21T04:42:19;7.10;99.90
53776;DHT22;44276;49.534;6.378;2024-02-21T04:44:47;7.10;99.90
53776;DHT22;44276;49.534;6.378;2024-02-21T04:47:15;7.10;99.90
53776;DHT22;44276;49.534;6.378;2024-02-21T04:49:44;7.10;99.90
53776;DHT22;44276;49.534;6.378;2024-02-21T04:52:24;7.10;99.90
53776;DHT22;44276;49.534;6.378;2024-02-21T04:54:54;7.00;99.90
53776;DHT22;44276;49.534;6.378;2024-02-21T04:57:22;7.00;99.90
53776;DHT22;44276;49.534;6.378;2024-02-21T04:59:52;7.00;99.90
53776;DHT22;44276;49.534;6.378;2024-02-21T05:02:20;7.00;99.90
53776;DHT22;44276;49.534;6.378;2024-02-21T05:04:51;7.00;99.90
53776;DHT22;44276;49.534;6.378;2024-02-21T05:07:22;7.00;99.90
53776;DHT22;44276;49.534;6.378;2024-02-21T05:09:50;7.00;99.90
53776;DHT22;44276;49.534;6.378;2024-02-21T05:12:20;7.00;99.90
53776;DHT22;44276;49.534;6.378;2024-02-21T05:14:48;7.10;99.90
53776;DHT22;44276;49.534;6.378;2024-02-21T05:17:16;7.00;99.90
53776;DHT22;44276;49.534;6.378;2024-02-21T05:19:44;7.00;99.90
53776;DHT22;44276;49.534;6.378;2024-02-21T05:22:25;7.00;99.90
53776;DHT22;44276;49.534;6.378;2024-02-21T05:24:53;7.00;99.90
53776;DHT22;44276;49.534;6.378;2024-02-21T05:27:23;7.00;99.90
53776;DHT22;44276;49.534;6.378;2024-02-21T05:29:51;7.00;99.90
53776;DHT22;44276;49.534;6.378;2024-02-21T05:32:19;7.00;99.90
53776;DHT22;44276;49.534;6.378;2024-02-21T05:34:48;6.90;99.90
53776;DHT22;44276;49.534;6.378;2024-02-21T05:37:17;6.90;99.90
53776;DHT22;44276;49.534;6.378;2024-02-21T05:39:46;6.90;99.90
53776;DHT22;44276;49.534;6.378;2024-02-21T05:42:14;6.90;99.90
53776;DHT22;44276;49.534;6.378;2024-02-21T05:44:44;6.90;99.90
53776;DHT22;44276;49.534;6.378;2024-02-21T05:47:12;6.90;99.90
53776;DHT22;44276;49.534;6.378;2024-02-21T05:49:42;6.90;99.90
53776;DHT22;44276;49.534;6.378;2024-02-21T05:52:25;6.90;99.90
53776;DHT22;44276;49.534;6.378;2024-02-21T05:54:54;6.90;99.90
53776;DHT22;44276;49.534;6.378;2024-02-21T05:57:22;7.00;99.90
53776;DHT22;44276;49.534;6.378;2024-02-21T05:59:52;6.90;99.90
53776;DHT22;44276;49.534;6.378;2024-02-21T06:02:20;6.90;99.90
53776;DHT22;44276;49.534;6.378;2024-02-21T06:04:48;6.90;99.90
53776;DHT22;44276;49.534;6.378;2024-02-21T06:07:20;6.90;99.90
53776;DHT22;44276;49.534;6.378;2024-02-21T06:09:48;6.90;99.90
53776;DHT22;44276;49.534;6.378;2024-02-21T06:12:17;6.90;99.90
53776;DHT22;44276;49.534;6.378;2024-02-21T06:14:45;7.00;99.90
53776;DHT22;44276;49.534;6.378;2024-02-21T06:17:15;7.00;99.90
53776;DHT22;44276;49.534;6.378;2024-02-21T06:19:44;7.00;99.90
53776;DHT22;44276;49.534;6.378;2024-02-21T06:22:12;6.90;99.90
53776;DHT22;44276;49.534;6.378;2024-02-21T06:24:47;7.00;99.90
53776;DHT22;44276;49.534;6.378;2024-02-21T06:27:16;7.00;99.90
53776;DHT22;44276;49.534;6.378;2024-02-21T06:29:44;7.00;99.90
53776;DHT22;44276;49.534;6.378;2024-02-21T06:32:14;7.00;99.90
53776;DHT22;44276;49.534;6.378;2024-02-21T06:34:42;7.00;99.90
53776;DHT22;44276;49.534;6.378;2024-02-21T06:39:59;6.90;99.90
53776;DHT22;44276;49.534;6.378;2024-02-21T06:42:27;6.90;99.90
53776;DHT22;44276;49.534;6.378;2024-02-21T06:44:56;7.00;99.90
53776;DHT22;44276;49.534;6.378;2024-02-21T06:47:26;6.90;99.90
53776;DHT22;44276;49.534;6.378;2024-02-21T06:49:54;6.90;99.90
53776;DHT22;44276;49.534;6.378;2024-02-21T06:52:22;6.90;99.90
53776;DHT22;44276;49.534;6.378;2024-02-21T06:54:51;6.90;99.90
53776;DHT22;44276;49.534;6.378;2024-02-21T06:57:19;6.90;99.90
53776;DHT22;44276;49.534;6.378;2024-02-21T06:59:48;6.80;99.90
53776;DHT22;44276;49.534;6.378;2024-02-21T07:02:16;6.80;99.90
53776;DHT22;44276;49.534;6.378;2024-02-21T07:04:46;6.90;99.90
53776;DHT22;44276;49.534;6.378;2024-02-21T07:07:17;6.90;99.90
53776;DHT22;44276;49.534;6.378;2024-02-21T07:09:46;7.00;99.90
53776;DHT22;44276;49.534;6.378;2024-02-21T07:12:15;7.00;99.90
53776;DHT22;44276;49.534;6.378;2024-02-21T07:14:44;7.00;99.90
53776;DHT22;44276;49.534;6.378;2024-02-21T07:17:13;7.10;99.90
53776;DHT22;44276;49.534;6.378;2024-02-21T07:19:41;7.10;99.90
53776;DHT22;44276;49.534;6.378;2024-02-21T07:22:25;7.10;99.90
53776;DHT22;44276;49.534;6.378;2024-02-21T07:24:54;7.20;99.90
53776;DHT22;44276;49.534;6.378;2024-02-21T07:27:22;7.20;99.90
53776;DHT22;44276;49.534;6.378;2024-02-21T07:29:54;7.20;99.90
53776;DHT22;44276;49.534;6.378;2024-02-21T07:32:22;7.30;99.90
53776;DHT22;44276;49.534;6.378;2024-02-21T07:34:51;7.30;99.90
53776;DHT22;44276;49.534;6.378;2024-02-21T07:37:22;7.30;99.90
53776;DHT22;44276;49.534;6.378;2024-02-21T07:39:52;7.30;99.90
53776;DHT22;44276;49.534;6.378;2024-02-21T07:42:20;7.40;99.90
53776;DHT22;44276;49.534;6.378;2024-02-21T07:44:48;7.40;99.90
53776;DHT22;44276;49.534;6.378;2024-02-21T07:47:16;7.50;99.90
53776;DHT22;44276;49.534;6.378;2024-02-21T07:49:45;7.50;99.90
53776;DHT22;44276;49.534;6.378;2024-02-21T07:52:24;7.50;99.90
53776;DHT22;44276;49.534;6.378;2024-02-21T07:54:54;7.60;99.90
53776;DHT22;44276;49.534;6.378;2024-02-21T07:57:22;7.70;99.90
53776;DHT22;44276;49.534;6.378;2024-02-21T07:59:50;7.70;99.90
53776;DHT22;44276;49.534;6.378;2024-02-21T08:02:19;7.70;99.90
53776;DHT22;44276;49.534;6.378;2024-02-21T08:04:47;7.70;99.90
53776;DHT22;44276;49.534;6.378;2024-02-21T08:07:20;7.90;99.90
53776;DHT22;44276;49.534;6.378;2024-02-21T08:09:48;7.80;99.90
53776;DHT22;44276;49.534;6.378;2024-02-21T08:12:18;7.90;99.90
53776;DHT22;44276;49.534;6.378;2024-02-21T08:14:46;8.00;99.90
53776;DHT22;44276;49.534;6.378;2024-02-21T08:17:14;8.20;99.90
53776;DHT22;44276;49.534;6.378;2024-02-21T08:19:42;8.30;99.90
53776;DHT22;44276;49.534;6.378;2024-02-21T08:22:10;8.40;99.90
53776;DHT22;44276;49.534;6.378;2024-02-21T08:24:39;8.50;99.90
53776;DHT22;44276;49.534;6.378;2024-02-21T08:27:08;8.50;99.90
53776;DHT22;44276;49.534;6.378;2024-02-21T08:29:37;8.40;99.90
53776;DHT22;44276;49.534;6.378;2024-02-21T08:32:06;8.40;99.90
53776;DHT22;44276;49.534;6.378;2024-02-21T08:34:34;8.40;99.90
53776;DHT22;44276;49.534;6.378;2024-02-21T08:37:05;8.40;99.90
53776;DHT22;44276;49.534;6.378;2024-02-21T08:39:35;8.30;99.90
53776;DHT22;44276;49.534;6.378;2024-02-21T08:42:03;8.30;99.90
53776;DHT22;44276;49.534;6.378;2024-02-21T08:44:32;8.30;99.90
53776;DHT22;44276;49.534;6.378;2024-02-21T08:47:01;8.30;99.90
53776;DHT22;44276;49.534;6.378;2024-02-21T08:49:31;8.30;99.90
53776;DHT22;44276;49.534;6.378;2024-02-21T08:52:04;8.40;99.90
53776;DHT22;44276;49.534;6.378;2024-02-21T08:54:33;8.40;99.90
53776;DHT22;44276;49.534;6.378;2024-02-21T08:57:01;8.50;99.90
53776;DHT22;44276;49.534;6.378;2024-02-21T08:59:30;8.60;99.90
53776;DHT22;44276;49.534;6.378;2024-02-21T09:01:58;8.80;99.90
53776;DHT22;44276;49.534;6.378;2024-02-21T09:04:28;8.80;99.90
53776;DHT22;44276;49.534;6.378;2024-02-21T09:07:06;8.80;99.90
53776;DHT22;44276;49.534;6.378;2024-02-21T09:09:34;8.90;99.90
53776;DHT22;44276;49.534;6.378;2024-02-21T09:12:05;8.90;99.90
53776;DHT22;44276;49.534;6.378;2024-02-21T09:14:36;8.90;99.90
53776;DHT22;44276;49.534;6.378;2024-02-21T09:17:05;8.90;99.90
53776;DHT22;44276;49.534;6.378;2024-02-21T09:19:35;9.00;99.90
53776;DHT22;44276;49.534;6.378;2024-02-21T09:22:04;8.90;99.90
53776;DHT22;44276;49.534;6.378;2024-02-21T09:24:32;9.10;99.90
53776;DHT22;44276;49.534;6.378;2024-02-21T09:27:00;9.20;99.90
53776;DHT22;44276;49.534;6.378;2024-02-21T09:29:28;9.30;99.90
53776;DHT22;44276;49.534;6.378;2024-02-21T09:31:57;9.30;99.90
53776;DHT22;44276;49.534;6.378;2024-02-21T09:34:25;9.40;99.90
53776;DHT22;44276;49.534;6.378;2024-02-21T09:37:06;9.50;99.90
53776;DHT22;44276;49.534;6.378;2024-02-21T09:39:35;9.50;99.90
53776;DHT22;44276;49.534;6.378;2024-02-21T09:42:06;9.50;99.90
53776;DHT22;44276;49.534;6.378;2024-02-21T09:44:37;9.60;99.90
53776;DHT22;44276;49.534;6.378;2024-02-21T09:47:10;9.70;99.90
53776;DHT22;44276;49.534;6.378;2024-02-21T09:49:45;9.80;99.90
53776;DHT22;44276;49.534;6.378;2024-02-21T09:52:20;9.80;99.90
53776;DHT22;44276;49.534;6.378;2024-02-21T09:54:50;9.80;99.90
53776;DHT22;44276;49.534;6.378;2024-02-21T09:57:20;9.80;99.90
53776;DHT22;44276;49.534;6.378;2024-02-21T09:59:51;9.70;99.90
53776;DHT22;44276;49.534;6.378;2024-02-21T10:02:20;9.60;99.90
53776;DHT22;44276;49.534;6.378;2024-02-21T10:04:49;9.60;99.90
53776;DHT22;44276;49.534;6.378;2024-02-21T10:07:25;9.50;99.90
53776;DHT22;44276;49.534;6.378;2024-02-21T10:10:00;9.60;99.90
53776;DHT22;44276;49.534;6.378;2024-02-21T10:12:29;9.70;99.90
53776;DHT22;44276;49.534;6.378;2024-02-21T10:15:01;9.80;99.90
53776;DHT22;44276;49.534;6.378;2024-02-21T10:17:30;9.80;99.90
53776;DHT22;44276;49.534;6.378;2024-02-21T10:20:07;9.80;99.90
53776;DHT22;44276;49.534;6.378;2024-02-21T10:22:38;9.80;99.90
53776;DHT22;44276;49.534;6.378;2024-02-21T10:25:07;9.80;99.90
53776;DHT22;44276;49.534;6.378;2024-02-21T10:27:36;9.80;99.90
53776;DHT22;44276;49.534;6.378;2024-02-21T10:30:06;9.90;99.90
53776;DHT22;44276;49.534;6.378;2024-02-21T10:32:48;10.00;99.90
53776;DHT22;44276;49.534;6.378;2024-02-21T10:35:26;10.00;99.90
53776;DHT22;44276;49.534;6.378;2024-02-21T10:37:57;10.00;99.90
53776;DHT22;44276;49.534;6.378;2024-02-21T10:40:28;10.00;99.90
53776;DHT22;44276;49.534;6.378;2024-02-21T10:42:59;10.00;99.90
53776;DHT22;44276;49.534;6.378;2024-02-21T10:45:30;10.10;99.90
53776;DHT22;44276;49.534;6.378;2024-02-21T10:48:08;10.10;99.90
53776;DHT22;44276;49.534;6.378;2024-02-21T10:50:52;10.10;99.90
53776;DHT22;44276;49.534;6.378;2024-02-21T10:53:39;10.10;99.90
53776;DHT22;44276;49.534;6.378;2024-02-21T10:56:25;10.20;99.90
53776;DHT22;44276;49.534;6.378;2024-02-21T10:58:58;10.00;99.90
53776;DHT22;44276;49.534;6.378;2024-02-21T11:01:28;10.10;99.90
53776;DHT22;44276;49.534;6.378;2024-02-21T11:04:01;10.10;99.90
53776;DHT22;44276;49.534;6.378;2024-02-21T11:06:31;10.00;99.90
53776;DHT22;44276;49.534;6.378;2024-02-21T11:09:05;10.10;99.90
53776;DHT22;44276;49.534;6.378;2024-02-21T11:11:35;10.10;99.90
53776;DHT22;44276;49.534;6.378;2024-02-21T11:14:08;10.30;99.90
53776;DHT22;44276;49.534;6.378;2024-02-21T11:16:38;10.30;99.90
53776;DHT22;44276;49.534;6.378;2024-02-21T11:19:08;10.30;99.90
53776;DHT22;44276;49.534;6.378;2024-02-21T11:21:38;10.30;99.90
53776;DHT22;44276;49.534;6.378;2024-02-21T11:24:09;10.30;99.90
53776;DHT22;44276;49.534;6.378;2024-02-21T11:26:38;10.30;99.90
53776;DHT22;44276;49.534;6.378;2024-02-21T11:29:08;10.20;99.90
53776;DHT22;44276;49.534;6.378;2024-02-21T11:31:39;10.40;99.90
53776;DHT22;44276;49.534;6.378;2024-02-21T11:34:09;10.40;99.90
53776;DHT22;44276;49.534;6.378;2024-02-21T11:36:47;10.30;99.90
53776;DHT22;44276;49.534;6.378;2024-02-21T11:39:23;10.40;99.90
53776;DHT22;44276;49.534;6.378;2024-02-21T11:42:02;10.40;99.90
53776;DHT22;44276;49.534;6.378;2024-02-21T11:44:31;10.30;99.90
53776;DHT22;44276;49.534;6.378;2024-02-21T11:47:00;10.20;99.90
53776;DHT22;44276;49.534;6.378;2024-02-21T11:49:30;10.20;99.90
53776;DHT22;44276;49.534;6.378;2024-02-21T11:51:59;10.30;99.90
53776;DHT22;44276;49.534;6.378;2024-02-21T11:54:32;10.30;99.90
53776;DHT22;44276;49.534;6.378;2024-02-21T11:57:01;10.40;99.90
53776;DHT22;44276;49.534;6.378;2024-02-21T11:59:30;10.50;99.90
53776;DHT22;44276;49.534;6.378;2024-02-21T12:02:00;10.40;99.90
53776;DHT22;44276;49.534;6.378;2024-02-21T12:04:30;10.30;99.90
53776;DHT22;44276;49.534;6.378;2024-02-21T12:06:59;10.20;99.90
53776;DHT22;44276;49.534;6.378;2024-02-21T12:09:27;10.10;99.90
53776;DHT22;44276;49.534;6.378;2024-02-21T12:12:00;10.10;99.90
53776;DHT22;44276;49.534;6.378;2024-02-21T12:14:31;10.10;99.90
53776;DHT22;44276;49.534;6.378;2024-02-21T12:17:01;10.20;99.90
53776;DHT22;44276;49.534;6.378;2024-02-21T12:19:31;10.20;99.90
53776;DHT22;44276;49.534;6.378;2024-02-21T12:22:01;10.40;99.90
53776;DHT22;44276;49.534;6.378;2024-02-21T12:24:33;10.50;99.90
53776;DHT22;44276;49.534;6.378;2024-02-21T12:27:05;10.60;99.90
53776;DHT22;44276;49.534;6.378;2024-02-21T12:29:33;10.70;99.90
53776;DHT22;44276;49.534;6.378;2024-02-21T12:32:02;11.00;99.90
53776;DHT22;44276;49.534;6.378;2024-02-21T12:34:31;11.00;99.90
53776;DHT22;44276;49.534;6.378;2024-02-21T12:37:18;11.10;99.90
53776;DHT22;44276;49.534;6.378;2024-02-21T12:39:47;11.10;99.90
53776;DHT22;44276;49.534;6.378;2024-02-21T12:42:17;11.20;99.90
53776;DHT22;44276;49.534;6.378;2024-02-21T12:44:45;11.40;99.90
53776;DHT22;44276;49.534;6.378;2024-02-21T12:47:14;11.60;99.90
53776;DHT22;44276;49.534;6.378;2024-02-21T12:49:42;11.50;99.90
53776;DHT22;44276;49.534;6.378;2024-02-21T12:52:12;11.50;99.90
53776;DHT22;44276;49.534;6.378;2024-02-21T12:54:41;11.30;99.90
53776;DHT22;44276;49.534;6.378;2024-02-21T12:57:09;11.20;99.90
53776;DHT22;44276;49.534;6.378;2024-02-21T12:59:39;11.30;99.90
53776;DHT22;44276;49.534;6.378;2024-02-21T13:02:07;11.40;99.90
53776;DHT22;44276;49.534;6.378;2024-02-21T13:04:35;11.40;99.90
53776;DHT22;44276;49.534;6.378;2024-02-21T13:07:07;11.30;99.90
53776;DHT22;44276;49.534;6.378;2024-02-21T13:09:36;11.40;99.90
53776;DHT22;44276;49.534;6.378;2024-02-21T13:12:04;11.50;99.90
53776;DHT22;44276;49.534;6.378;2024-02-21T13:14:33;11.60;99.90
53776;DHT22;44276;49.534;6.378;2024-02-21T13:17:03;11.70;98.00
53776;DHT22;44276;49.534;6.378;2024-02-21T13:19:31;11.70;95.90
53776;DHT22;44276;49.534;6.378;2024-02-21T13:21:59;11.90;95.50
53776;DHT22;44276;49.534;6.378;2024-02-21T13:24:30;11.90;96.10
53776;DHT22;44276;49.534;6.378;2024-02-21T13:26:58;11.80;99.90
53776;DHT22;44276;49.534;6.378;2024-02-21T13:29:26;11.60;96.20
53776;DHT22;44276;49.534;6.378;2024-02-21T13:31:55;11.50;98.30
53776;DHT22;44276;49.534;6.378;2024-02-21T13:34:24;11.40;99.90
53776;DHT22;44276;49.534;6.378;2024-02-21T13:36:53;11.40;95.50
53776;DHT22;44276;49.534;6.378;2024-02-21T13:39:21;11.20;95.70
53776;DHT22;44276;49.534;6.378;2024-02-21T13:41:50;11.10;97.20
53776;DHT22;44276;49.534;6.378;2024-02-21T13:44:18;11.00;96.10
53776;DHT22;44276;49.534;6.378;2024-02-21T13:46:46;11.10;99.90
53776;DHT22;44276;49.534;6.378;2024-02-21T13:49:15;11.10;97.50
53776;DHT22;44276;49.534;6.378;2024-02-21T13:51:45;11.00;97.90
53776;DHT22;44276;49.534;6.378;2024-02-21T13:54:13;11.10;96.10
53776;DHT22;44276;49.534;6.378;2024-02-21T13:56:43;11.10;98.00
53776;DHT22;44276;49.534;6.378;2024-02-21T13:59:12;10.90;97.50
53776;DHT22;44276;49.534;6.378;2024-02-21T14:01:41;10.90;99.90
53776;DHT22;44276;49.534;6.378;2024-02-21T14:04:09;11.10;99.90
53776;DHT22;44276;49.534;6.378;2024-02-21T14:06:38;11.00;99.90
53776;DHT22;44276;49.534;6.378;2024-02-21T14:09:11;11.00;99.90
53776;DHT22;44276;49.534;6.378;2024-02-21T14:11:39;10.90;99.90
53776;DHT22;44276;49.534;6.378;2024-02-21T14:14:08;10.90;99.90
53776;DHT22;44276;49.534;6.378;2024-02-21T14:16:37;10.70;99.90
53776;DHT22;44276;49.534;6.378;2024-02-21T14:19:05;10.70;99.90
53776;DHT22;44276;49.534;6.378;2024-02-21T14:21:35;10.70;99.90
53776;DHT22;44276;49.534;6.378;2024-02-21T14:24:04;10.70;99.90
53776;DHT22;44276;49.534;6.378;2024-02-21T14:26:34;10.70;99.90
53776;DHT22;44276;49.534;6.378;2024-02-21T14:29:04;10.70;99.90
53776;DHT22;44276;49.534;6.378;2024-02-21T14:31:32;10.70;99.90
53776;DHT22;44276;49.534;6.378;2024-02-21T14:34:00;10.70;99.90
53776;DHT22;44276;49.534;6.378;2024-02-21T14:36:29;10.80;99.90
53776;DHT22;44276;49.534;6.378;2024-02-21T14:38:57;10.80;99.90
53776;DHT22;44276;49.534;6.378;2024-02-21T14:41:26;10.80;99.90
53776;DHT22;44276;49.534;6.378;2024-02-21T14:43:55;10.90;99.90
53776;DHT22;44276;49.534;6.378;2024-02-21T14:46:30;10.90;99.90
53776;DHT22;44276;49.534;6.378;2024-02-21T14:48:58;10.90;99.90
53776;DHT22;44276;49.534;6.378;2024-02-21T14:51:27;10.90;99.90
53776;DHT22;44276;49.534;6.378;2024-02-21T14:53:55;10.90;99.90
53776;DHT22;44276;49.534;6.378;2024-02-21T14:56:23;10.90;99.90
53776;DHT22;44276;49.534;6.378;2024-02-21T14:58:51;10.80;99.90
53776;DHT22;44276;49.534;6.378;2024-02-21T15:01:26;10.80;99.90
53776;DHT22;44276;49.534;6.378;2024-02-21T15:03:54;10.80;99.90
53776;DHT22;44276;49.534;6.378;2024-02-21T15:06:22;10.70;99.90
53776;DHT22;44276;49.534;6.378;2024-02-21T15:08:50;10.70;99.90
53776;DHT22;44276;49.534;6.378;2024-02-21T15:11:19;10.70;99.90
53776;DHT22;44276;49.534;6.378;2024-02-21T15:13:49;10.70;99.90
53776;DHT22;44276;49.534;6.378;2024-02-21T15:16:17;10.70;99.90
53776;DHT22;44276;49.534;6.378;2024-02-21T15:18:47;10.60;99.90
53776;DHT22;44276;49.534;6.378;2024-02-21T15:21:15;10.60;99.90
53776;DHT22;44276;49.534;6.378;2024-02-21T15:23:43;10.60;99.90
53776;DHT22;44276;49.534;6.378;2024-02-21T15:26:11;10.60;99.90
53776;DHT22;44276;49.534;6.378;2024-02-21T15:28:41;10.60;99.90
53776;DHT22;44276;49.534;6.378;2024-02-21T15:31:19;10.60;99.90
53776;DHT22;44276;49.534;6.378;2024-02-21T15:33:52;10.80;99.90
53776;DHT22;44276;49.534;6.378;2024-02-21T15:36:21;10.50;99.90
53776;DHT22;44276;49.534;6.378;2024-02-21T15:38:49;10.50;99.90
53776;DHT22;44276;49.534;6.378;2024-02-21T15:41:17;10.50;99.90
53776;DHT22;44276;49.534;6.378;2024-02-21T15:43:48;10.40;99.90
53776;DHT22;44276;49.534;6.378;2024-02-21T15:46:17;10.40;99.90
53776;DHT22;44276;49.534;6.378;2024-02-21T15:48:45;10.30;99.90
53776;DHT22;44276;49.534;6.378;2024-02-21T15:51:17;10.40;99.90
53776;DHT22;44276;49.534;6.378;2024-02-21T15:53:46;10.30;99.90
53776;DHT22;44276;49.534;6.378;2024-02-21T15:56:14;10.30;99.90
53776;DHT22;44276;49.534;6.378;2024-02-21T15:58:42;10.20;99.90
53776;DHT22;44276;49.534;6.378;2024-02-21T16:01:11;10.10;99.90